createdAt,value
2019-05-21T00:00:58.790Z,5.57
2019-05-21T00:06:06.220Z,9.37
2019-05-21T00:11:13.794Z,31.90
2019-05-21T00:16:21.256Z,12.63
2019-05-21T00:21:28.709Z,8.47
2019-05-21T00:26:37.141Z,34.40
2019-05-21T00:32:37.842Z,12.60
2019-05-21T00:38:38.715Z,8.07
2019-05-21T00:43:59.137Z,8.03
2019-05-21T00:49:06.554Z,5.97
2019-05-21T00:54:13.966Z,6.13
2019-05-21T00:59:24.202Z,10.07
2019-05-21T01:04:31.663Z,8.93
2019-05-21T01:09:38.961Z,9.77
2019-05-21T01:14:46.461Z,6.87
2019-05-21T01:19:53.800Z,8.13
2019-05-21T01:25:01.209Z,7.63
2019-05-21T01:30:10.261Z,8.27
2019-05-21T01:35:17.772Z,8.43
2019-05-21T01:40:25.161Z,12.60
2019-05-21T01:45:32.689Z,36.10
2019-05-21T01:50:40.189Z,18.47
2019-05-21T01:55:47.617Z,20.37
2019-05-21T02:00:54.963Z,49.70
2019-05-21T02:06:02.322Z,85.70
2019-05-21T02:11:09.827Z,17.80
2019-05-21T02:16:17.295Z,54.30
2019-05-21T02:21:24.727Z,30.77
2019-05-21T02:26:32.075Z,57.00
2019-05-21T02:31:39.483Z,95.07
2019-05-21T02:36:46.879Z,121.90
2019-05-21T02:41:54.330Z,243.17
2019-05-21T02:47:01.829Z,35.53
2019-05-21T02:52:09.227Z,7.70
2019-05-21T02:57:16.740Z,5.83
2019-05-21T03:02:39.025Z,8.57
2019-05-21T03:07:46.450Z,53.67
2019-05-21T03:12:53.964Z,61.03
2019-05-21T03:18:01.296Z,12.77
2019-05-21T03:23:08.693Z,15.43
2019-05-21T03:28:16.154Z,28.60
2019-05-21T03:33:23.615Z,9.07
2019-05-21T03:38:31.123Z,11.13
2019-05-21T03:43:38.612Z,11.23
2019-05-21T03:48:46.449Z,12.43
2019-05-21T03:53:53.771Z,9.47
2019-05-21T03:59:01.212Z,9.07
2019-05-21T04:04:08.637Z,9.73
2019-05-21T04:09:15.962Z,10.63
2019-05-21T04:14:40.267Z,10.20
2019-05-21T04:19:48.344Z,12.00
2019-05-21T04:24:55.731Z,9.87
2019-05-21T04:30:03.206Z,12.20
2019-05-21T04:35:10.761Z,10.50
2019-05-21T04:40:18.381Z,7.90
2019-05-21T04:45:25.837Z,11.83
2019-05-21T04:50:33.232Z,13.70
2019-05-21T04:55:41.578Z,10.47
2019-05-21T05:00:48.968Z,11.27
2019-05-21T05:05:57.349Z,12.93
2019-05-21T05:11:04.821Z,10.73
2019-05-21T05:16:12.218Z,13.57
2019-05-21T05:21:19.547Z,10.77
2019-05-21T05:26:26.891Z,11.57
2019-05-21T05:31:34.318Z,11.17
2019-05-21T05:36:41.638Z,14.27
2019-05-21T05:41:49.066Z,17.10
2019-05-21T05:46:56.500Z,14.93
2019-05-21T05:52:03.928Z,17.07
2019-05-21T05:57:11.977Z,18.07
2019-05-21T06:02:19.445Z,18.67
2019-05-21T06:07:26.846Z,21.73
2019-05-21T06:12:34.435Z,23.40
2019-05-21T06:17:41.830Z,22.40
2019-05-21T06:22:49.267Z,24.97
2019-05-21T06:27:56.728Z,23.03
2019-05-21T06:33:04.130Z,24.57
2019-05-21T06:38:17.696Z,23.70
2019-05-21T06:43:22.375Z,21.47
2019-05-21T06:48:29.703Z,22.17
2019-05-21T06:53:37.210Z,22.23
2019-05-21T06:58:44.748Z,21.83
2019-05-21T07:03:52.255Z,15.97
2019-05-21T07:08:59.609Z,18.60
2019-05-21T07:14:07.180Z,16.57
2019-05-21T07:19:14.537Z,14.17
2019-05-21T07:24:21.941Z,12.40
2019-05-21T07:29:29.451Z,12.53
2019-05-21T07:34:36.880Z,8.67
2019-05-21T07:39:44.308Z,7.93
2019-05-21T07:44:51.660Z,7.23
2019-05-21T07:49:59.072Z,6.30
2019-05-21T07:55:07.318Z,5.20
2019-05-21T08:00:17.005Z,5.00
2019-05-21T08:05:24.571Z,5.37
2019-05-21T08:10:31.998Z,5.03
2019-05-21T08:15:39.457Z,5.20
2019-05-21T08:20:46.859Z,4.50
2019-05-21T08:25:54.251Z,7.77
2019-05-21T08:31:02.461Z,5.10
2019-05-21T08:36:10.001Z,5.27
2019-05-21T08:41:17.382Z,5.20
2019-05-21T08:46:24.773Z,5.03
2019-05-21T08:51:32.370Z,5.60
2019-05-21T08:56:40.137Z,5.07
2019-05-21T09:01:47.711Z,9.27
2019-05-21T09:06:55.154Z,7.23
2019-05-21T09:12:02.600Z,3.60
2019-05-21T09:17:10.029Z,5.80
2019-05-21T09:22:17.430Z,4.20
2019-05-21T09:27:24.870Z,5.10
2019-05-21T09:38:37.878Z,3.20
2019-05-21T09:43:45.314Z,3.60
2019-05-21T09:48:55.563Z,2.33
2019-05-21T09:54:01.806Z,2.77
2019-05-21T09:59:28.623Z,4.50
2019-05-21T10:04:36.008Z,2.60
2019-05-21T10:09:43.416Z,2.60
2019-05-21T10:14:51.933Z,2.97
2019-05-21T10:19:59.333Z,3.53
2019-05-21T10:25:07.099Z,3.87
2019-05-21T10:30:14.885Z,2.47
2019-05-21T10:35:22.399Z,3.50
2019-05-21T10:40:29.797Z,1.80
2019-05-21T10:45:36.780Z,3.30
2019-05-21T10:50:44.126Z,1.50
2019-05-21T10:55:51.544Z,2.20
2019-05-21T11:01:06.175Z,2.40
2019-05-21T11:06:14.404Z,2.20
2019-05-21T11:11:21.949Z,1.77
2019-05-21T11:16:29.348Z,1.37
2019-05-21T11:21:36.724Z,4.37
2019-05-21T11:26:44.146Z,3.00
2019-05-21T11:31:57.193Z,3.90
2019-05-21T11:37:00.505Z,1.37
2019-05-21T11:42:08.026Z,2.60
2019-05-21T11:48:03.313Z,3.13
2019-05-21T11:52:26.417Z,2.17
2019-05-21T11:57:34.083Z,1.77
2019-05-21T12:02:42.266Z,2.03
2019-05-21T12:07:49.891Z,1.17
2019-05-21T12:12:57.448Z,3.50
2019-05-21T12:18:04.988Z,1.03
2019-05-21T12:23:12.437Z,1.37
2019-05-21T12:28:19.862Z,2.53
2019-05-21T12:33:27.425Z,3.40
2019-05-21T12:38:35.727Z,1.10
2019-05-21T12:43:43.257Z,1.25
2019-05-21T12:48:53.834Z,3.30
2019-05-21T12:54:01.418Z,1.00
2019-05-21T12:59:08.776Z,2.22
2019-05-21T13:04:16.416Z,1.30
2019-05-21T13:09:32.950Z,5.40
2019-05-21T13:14:33.488Z,2.20
2019-05-21T13:19:41.156Z,1.82
2019-05-21T13:24:49.195Z,1.98
2019-05-21T13:29:56.840Z,0.95
2019-05-21T13:35:04.667Z,2.10
2019-05-21T13:40:14.056Z,1.45
2019-05-21T13:45:21.732Z,1.42
2019-05-21T13:50:29.215Z,2.00
2019-05-21T13:55:36.548Z,1.55
2019-05-21T14:00:48.901Z,3.95
2019-05-21T14:05:56.351Z,3.15
2019-05-21T14:11:04.184Z,2.60
2019-05-21T14:16:11.896Z,3.05
2019-05-21T14:21:19.830Z,2.40
2019-05-21T14:26:27.724Z,1.57
2019-05-21T14:31:36.255Z,1.40
2019-05-21T14:36:43.617Z,2.10
2019-05-21T14:41:50.992Z,1.83
2019-05-21T14:46:58.367Z,3.87
2019-05-21T14:52:06.570Z,3.10
2019-05-21T14:57:14.000Z,4.80
2019-05-21T15:02:21.652Z,2.43
2019-05-21T15:07:29.070Z,3.60
2019-05-21T15:12:36.898Z,5.37
2019-05-21T15:17:44.896Z,2.57
2019-05-21T15:22:52.577Z,2.10
2019-05-21T15:28:00.031Z,7.40
2019-05-21T15:33:08.051Z,2.47
2019-05-21T15:38:15.479Z,4.27
2019-05-21T15:43:23.066Z,5.50
2019-05-21T15:48:30.505Z,3.20
2019-05-21T15:53:37.995Z,2.30
2019-05-21T15:58:45.363Z,3.07
2019-05-21T16:03:52.823Z,2.67
2019-05-21T16:09:00.382Z,1.73
2019-05-21T16:14:08.047Z,4.30
2019-05-21T16:19:18.231Z,7.77
2019-05-21T16:24:26.184Z,4.03
2019-05-21T16:29:39.689Z,2.20
2019-05-21T16:34:48.540Z,3.93
2019-05-21T16:39:56.391Z,2.50
2019-05-21T16:45:04.131Z,3.83
2019-05-21T16:50:13.443Z,4.47
2019-05-21T16:55:21.077Z,3.73
2019-05-21T17:00:29.708Z,3.87
2019-05-21T17:05:38.417Z,7.20
2019-05-21T17:10:46.386Z,7.77
2019-05-21T17:15:53.954Z,4.47
2019-05-21T17:21:02.893Z,3.97
2019-05-21T17:26:13.738Z,8.90
2019-05-21T17:31:21.759Z,3.50
2019-05-21T17:36:29.143Z,8.77
2019-05-21T17:41:36.731Z,7.27
2019-05-21T17:46:43.977Z,7.97
2019-05-21T17:51:51.329Z,8.87
2019-05-21T17:56:58.683Z,5.00
2019-05-21T18:02:08.045Z,7.07
2019-05-21T18:07:15.648Z,3.57
2019-05-21T18:12:31.601Z,5.80
2019-05-21T18:17:34.186Z,6.47
2019-05-21T18:22:43.790Z,51.63
2019-05-21T18:27:51.258Z,14.47
2019-05-21T18:32:59.217Z,5.00
2019-05-21T18:38:07.064Z,6.57
2019-05-21T18:43:14.697Z,4.93
2019-05-21T18:48:24.818Z,4.53
2019-05-21T18:53:32.747Z,12.70
2019-05-21T18:58:40.229Z,5.07
2019-05-21T19:03:47.822Z,4.07
2019-05-21T19:08:55.225Z,3.90
2019-05-21T19:14:02.726Z,4.30
2019-05-21T19:19:10.157Z,9.83
2019-05-21T19:24:18.074Z,6.30
2019-05-21T19:29:25.486Z,7.77
2019-05-21T19:34:32.952Z,8.17
2019-05-21T19:39:41.099Z,9.93
2019-05-21T19:44:49.367Z,14.10
2019-05-21T19:49:57.318Z,18.33
2019-05-21T19:55:05.132Z,20.33
2019-05-21T20:00:13.002Z,20.57
2019-05-21T20:05:20.663Z,21.47
2019-05-21T20:10:28.921Z,19.73
2019-05-21T20:15:37.298Z,19.37
2019-05-21T20:20:45.538Z,17.47
2019-05-21T20:25:56.784Z,19.33
2019-05-21T20:31:03.830Z,20.70
2019-05-21T20:36:11.293Z,20.33
2019-05-21T20:41:19.216Z,20.43
2019-05-21T20:46:28.253Z,24.13
2019-05-21T20:51:35.928Z,21.70
2019-05-21T20:56:43.676Z,22.80
2019-05-21T21:01:51.654Z,22.60
2019-05-21T21:06:59.244Z,22.07
2019-05-21T21:12:08.880Z,21.63
2019-05-21T21:17:17.290Z,25.17
2019-05-21T21:22:24.757Z,25.90
2019-05-21T21:27:33.296Z,27.03
2019-05-21T21:32:41.483Z,28.57
2019-05-21T21:37:49.105Z,27.50
2019-05-21T21:42:57.220Z,26.80
2019-05-21T21:48:05.577Z,29.63
2019-05-21T21:53:13.891Z,30.63
2019-05-21T21:58:21.450Z,31.63
2019-05-21T22:03:32.298Z,32.50
2019-05-21T22:08:39.850Z,31.70
2019-05-21T22:13:48.644Z,35.83
2019-05-21T22:18:57.294Z,36.53
2019-05-21T22:24:05.221Z,36.43
2019-05-21T22:29:12.819Z,33.17
2019-05-21T22:34:21.180Z,31.67
2019-05-21T22:39:30.746Z,32.10
2019-05-21T22:44:38.506Z,32.17
2019-05-21T22:49:45.838Z,28.60
2019-05-21T22:54:53.280Z,27.07
2019-05-21T23:00:00.834Z,30.00
2019-05-21T23:05:09.684Z,28.40
2019-05-21T23:10:20.057Z,30.13
2019-05-21T23:15:27.576Z,27.30
2019-05-21T23:20:54.442Z,25.30
2019-05-21T23:26:04.000Z,23.23
2019-05-21T23:31:11.418Z,26.40
2019-05-21T23:36:19.661Z,26.30
2019-05-21T23:41:28.870Z,32.40
2019-05-21T23:46:36.576Z,29.00
2019-05-21T23:51:45.145Z,29.47
2019-05-21T23:56:52.951Z,29.77
